.
WxDataArchive / Data Records for 2011-10-25
2011-10-24 October 2011 2011-10-26

Data Records for Tuesday, 25 October 2011

Time	Temp	Chill	HIndex	Humid	Dewpt	 Wind 	HiWind	WindDir	Rain 	Barom 
-----	----	-----	------	-----	-----	------	------	-------	-----	----- 
00:00	40.3	40.3	40.3	85	36.2	0	0	---	0.00	30.163 
00:05	40.2	40.2	40.2	85	36.1	0	0	---	0.00	30.163 
00:10	40.2	40.2	40.2	85	36.1	0	0	---	0.00	30.163 
00:15	40.1	40.1	40.1	86	36.3	0	0	---	0.00	30.158 
00:20	40.1	40.1	40.1	86	36.3	0	0	---	0.00	30.158 
00:25	40.1	40.1	40.1	86	36.3	0	0	---	0.00	30.158 
00:30	40.1	40.1	40.1	86	36.3	0	0	---	0.00	30.162 
00:35	40.1	40.1	40.1	86	36.3	0	0	---	0.00	30.162 
00:40	40.1	40.1	40.1	86	36.3	0	0	---	0.00	30.162 
00:45	39.9	39.9	39.9	86	36.1	0	0	---	0.00	30.158 
00:50	39.9	39.9	39.9	86	36.1	0	0	---	0.00	30.158 
00:55	39.9	39.9	39.9	86	36.1	0	0	---	0.00	30.158 
01:00	39.8	39.8	39.8	86	36.0	0	0	---	0.00	30.165 
01:05	39.8	39.8	39.8	86	36.0	0	0	---	0.00	30.165 
01:10	39.8	39.8	39.8	86	36.0	0	0	---	0.00	30.165 
01:15	39.6	39.6	39.6	86	35.8	0	0	---	0.00	30.161 
01:20	39.6	39.6	39.6	87	36.1	0	0	---	0.00	30.161 
01:25	39.6	39.6	39.6	87	36.1	0	0	---	0.00	30.161 
01:30	39.6	39.6	39.6	87	36.1	0	0	---	0.00	30.163 
01:35	39.6	39.6	39.6	87	36.1	0	0	---	0.00	30.163 
01:40	39.5	39.5	39.5	87	36.0	0	0	---	0.00	30.163 
01:45	39.5	39.5	39.5	87	36.0	0	0	---	0.00	30.165 
01:50	39.3	39.3	39.3	87	35.8	0	0	---	0.00	30.165 
01:55	39.3	39.3	39.3	87	35.8	0	0	---	0.00	30.165 
02:00	39.3	39.3	39.3	87	35.8	0	0	---	0.00	30.166 
02:05	39.3	39.3	39.3	87	35.8	0	0	---	0.00	30.166 
02:10	39.3	39.3	39.3	87	35.8	0	0	---	0.00	30.166 
02:15	39.2	39.2	39.2	87	35.7	0	0	---	0.00	30.163 
02:20	39.2	39.2	39.2	88	35.9	0	0	---	0.00	30.163 
02:25	39.2	39.2	39.2	88	35.9	0	0	---	0.00	30.163 
02:30	39.1	39.1	39.1	88	35.9	0	0	---	0.00	30.158 
02:35	39.1	39.1	39.1	88	35.9	0	0	---	0.00	30.158 
02:40	38.9	38.9	38.9	88	35.7	0	0	---	0.00	30.158 
02:45	38.9	38.9	38.9	88	35.7	0	0	---	0.00	30.162 
02:50	38.8	38.8	38.8	88	35.6	0	0	---	0.00	30.162 
02:55	38.8	38.8	38.8	88	35.6	0	0	---	0.00	30.162 
03:00	38.6	38.6	38.6	88	35.4	0	0	---	0.00	30.166 
03:05	38.6	38.6	38.6	88	35.4	0	0	---	0.00	30.166 
03:10	38.5	38.5	38.5	88	35.3	0	0	---	0.00	30.166 
03:15	38.5	38.5	38.5	88	35.3	0	0	---	0.00	30.167 
03:20	38.3	38.3	38.3	88	35.1	0	0	---	0.00	30.167 
03:25	38.3	38.3	38.3	88	35.1	0	0	---	0.00	30.167 
03:30	38.3	38.3	38.3	88	35.1	0	0	---	0.00	30.170 
03:35	38.2	38.2	38.2	88	35.0	0	0	---	0.00	30.170 
03:40	38.2	38.2	38.2	88	35.0	0	0	---	0.00	30.170 
03:45	38.2	38.2	38.2	88	35.0	0	0	---	0.00	30.172 
03:50	38.2	38.2	38.2	88	35.0	0	0	---	0.00	30.172 
03:55	38.0	38.0	38.0	89	35.1	0	0	---	0.00	30.172 
04:00	38.0	38.0	38.0	89	35.1	0	0	---	0.00	30.174 
04:05	37.9	37.9	37.9	89	35.0	0	0	---	0.00	30.174 
04:10	37.9	37.9	37.9	89	35.0	0	0	---	0.00	30.174 
04:15	37.8	37.8	37.8	89	34.9	0	0	---	0.00	30.167 
04:20	37.8	37.8	37.8	89	34.9	0	0	---	0.00	30.167 
04:25	37.8	37.8	37.8	89	34.9	0	0	---	0.00	30.167 
04:30	37.8	37.8	37.8	89	34.9	0	0	---	0.00	30.168 
04:35	37.9	37.9	37.9	90	35.2	0	0	---	0.00	30.168 
04:40	37.9	37.9	37.9	90	35.2	0	0	---	0.00	30.168 
04:45	37.9	37.9	37.9	90	35.2	0	0	---	0.00	30.175 
04:50	37.9	37.9	37.9	90	35.2	0	0	---	0.00	30.175 
04:55	37.9	37.9	37.9	90	35.2	0	0	---	0.00	30.175 
05:00	38.0	38.0	38.0	90	35.3	0	0	---	0.00	30.178 
05:05	38.0	38.0	38.0	90	35.3	0	0	---	0.00	30.178 
05:10	38.0	38.0	38.0	90	35.3	0	0	---	0.00	30.178 
05:15	38.0	38.0	38.0	90	35.3	0	0	---	0.00	30.178 
05:20	38.0	38.0	38.0	90	35.3	0	0	---	0.00	30.178 
05:25	38.0	38.0	38.0	90	35.3	0	0	---	0.00	30.178 
05:30	38.0	38.0	38.0	90	35.3	0	0	---	0.00	30.168 
05:35	38.0	38.0	38.0	90	35.3	0	0	---	0.00	30.168 
05:40	38.2	38.2	38.2	90	35.5	0	0	---	0.00	30.168 
05:45	38.2	38.2	38.2	90	35.5	0	0	---	0.00	30.170 
05:50	38.2	38.2	38.2	90	35.5	0	0	---	0.00	30.170 
05:55	38.2	38.2	38.2	90	35.5	0	0	---	0.00	30.170 
06:00	38.0	38.0	38.0	90	35.3	0	0	---	0.00	30.167 
06:05	38.0	38.0	38.0	90	35.3	0	0	---	0.00	30.167 
06:10	38.0	38.0	38.0	90	35.3	0	0	---	0.00	30.167 
06:15	38.2	38.2	38.2	90	35.5	0	0	---	0.00	30.168 
06:20	38.2	38.2	38.2	90	35.5	0	0	---	0.00	30.168 
06:25	38.2	38.2	38.2	90	35.5	0	0	---	0.00	30.168 
06:30	38.0	38.0	38.0	90	35.3	0	0	---	0.00	30.167 
06:35	38.0	38.0	38.0	90	35.3	0	0	---	0.00	30.167 
06:40	38.0	38.0	38.0	90	35.3	0	0	---	0.00	30.167 
06:45	38.0	38.0	38.0	90	35.3	0	0	---	0.00	30.171 
06:50	37.9	37.9	37.9	90	35.2	0	0	---	0.00	30.171 
06:55	37.9	37.9	37.9	90	35.2	0	0	---	0.00	30.171 
07:00	37.9	37.9	37.9	90	35.2	0	0	---	0.00	30.168 
07:05	37.9	37.9	37.9	91	35.5	0	0	---	0.00	30.168 
07:10	38.2	38.2	38.2	90	35.5	0	0	---	0.00	30.168 
07:15	38.3	38.3	38.3	90	35.6	0	0	---	0.00	30.165 
07:20	38.6	38.6	38.6	89	35.6	0	0	---	0.00	30.165 
07:25	38.9	38.9	38.9	88	35.7	0	0	---	0.00	30.165 
07:30	39.3	39.3	39.3	88	36.0	0	0	---	0.00	30.153 
07:35	39.9	39.9	39.9	86	36.1	0	1	270	0.00	30.153 
07:40	40.2	40.2	40.2	85	36.1	0	0	---	0.00	30.153 
07:45	40.5	40.5	40.5	84	36.1	0	0	---	0.00	30.143 
07:50	40.5	40.5	40.5	84	36.1	0	0	---	0.00	30.143 
07:55	40.5	40.5	40.5	84	36.1	0	0	---	0.00	30.143 
08:00	40.3	40.3	40.3	84	35.9	0	0	---	0.00	30.151 
08:05	40.2	40.2	40.2	84	35.8	0	0	---	0.00	30.151 
08:10	40.1	40.1	40.1	84	35.7	0	0	---	0.00	30.151 
08:15	39.9	39.9	39.9	84	35.5	0	0	---	0.00	30.155 
08:20	39.9	39.9	39.9	84	35.5	0	0	---	0.00	30.155 
08:25	39.9	39.9	39.9	84	35.5	0	0	---	0.00	30.155 
08:30	40.1	40.1	40.1	84	35.7	0	0	---	0.00	30.154 
08:35	40.2	40.2	40.2	84	35.8	0	0	---	0.00	30.154 
08:40	40.3	40.3	40.3	84	35.9	0	0	---	0.00	30.154 
08:45	40.6	40.6	40.6	84	36.2	0	0	---	0.00	30.159 
08:50	41.2	41.2	41.2	83	36.4	0	0	---	0.00	30.159 
08:55	41.8	41.8	41.8	83	37.0	0	0	---	0.00	30.159 
09:00	42.3	42.3	42.3	81	36.9	0	0	---	0.00	30.157 
09:05	43.1	43.1	43.1	81	37.7	0	1	270	0.00	30.157 
09:10	43.6	43.6	43.6	80	37.8	0	1	270	0.00	30.157 
09:15	44.3	44.3	44.3	80	38.5	0	2	248	0.00	30.158 
09:20	45.1	45.1	45.1	78	38.7	0	2	248	0.00	30.158 
09:25	45.8	45.8	45.8	77	39.0	0	1	248	0.00	30.158 
09:30	46.7	46.7	46.7	75	39.2	0	1	248	0.00	30.153 
09:35	47.4	47.4	47.4	74	39.5	0	1	248	0.00	30.153 
09:40	48.0	48.0	48.0	72	39.4	0	5	248	0.00	30.153 
09:45	48.9	48.9	48.9	69	39.2	1	3	248	0.00	30.151 
09:50	49.6	49.6	49.6	68	39.5	0	3	248	0.00	30.151 
09:55	50.4	50.4	50.4	66	39.5	0	2	270	0.00	30.151 
10:00	51.3	51.3	51.3	65	39.9	0	2	270	0.00	30.143 
10:05	52.2	52.2	52.2	62	39.6	0	2	270	0.00	30.143 
10:10	53.1	53.1	53.1	58	38.7	1	5	90	0.00	30.143 
10:15	53.5	53.5	53.5	58	39.1	1	3	90	0.00	30.132 
10:20	54.1	54.1	54.1	57	39.2	1	5	90	0.00	30.132 
10:25	54.8	54.8	54.8	57	39.9	0	2	90	0.00	30.132 
10:30	55.4	55.4	55.4	55	39.5	0	3	90	0.00	30.121 
10:35	55.9	55.9	55.9	56	40.4	1	3	90	0.00	30.121 
10:40	56.2	56.2	56.2	54	39.8	1	3	338	0.00	30.121 
10:45	56.3	56.3	56.3	55	40.3	1	5	292	0.00	30.120 
10:50	56.6	56.6	56.6	54	40.1	0	3	292	0.00	30.120 
10:55	57.0	57.0	57.0	55	41.0	1	4	248	0.00	30.120 
11:00	57.5	57.5	57.5	52	40.0	1	3	225	0.00	30.114 
11:05	57.8	57.8	57.8	52	40.3	0	3	135	0.00	30.114 
11:10	58.0	58.0	58.0	53	41.0	1	4	112	0.00	30.114 
11:15	58.0	58.0	58.0	52	40.5	0	2	315	0.00	30.110 
11:20	58.1	58.1	58.1	53	41.1	0	1	315	0.00	30.110 
11:25	58.3	58.3	58.3	51	40.3	1	3	90	0.00	30.110 
11:30	58.1	58.1	58.1	51	40.1	1	3	270	0.00	30.105 
11:35	58.7	58.7	58.7	51	40.6	1	4	90	0.00	30.105 
11:40	59.0	59.0	59.0	50	40.4	1	3	0	0.00	30.105 
11:45	59.0	59.0	59.0	51	40.9	0	3	0	0.00	30.102 
11:50	59.5	59.5	59.5	50	40.8	1	3	45	0.00	30.102 
11:55	59.8	59.8	59.8	50	41.1	1	5	248	0.00	30.102 
12:00	60.5	60.5	60.5	48	40.7	1	4	68	0.00	30.090 
12:05	61.2	61.2	61.2	45	39.7	1	9	112	0.00	30.090 
12:10	61.6	61.6	61.6	45	40.0	1	5	112	0.00	30.090 
12:15	62.1	62.1	62.1	46	41.1	1	3	292	0.00	30.082 
12:20	62.7	62.7	62.7	43	39.9	1	4	292	0.00	30.082 
12:25	63.1	63.1	63.1	43	40.2	2	10	270	0.00	30.082 
12:30	63.2	63.2	63.2	43	40.3	1	6	225	0.00	30.076 
12:35	63.5	63.5	63.5	40	38.7	1	5	90	0.00	30.076 
12:40	63.7	63.7	63.7	41	39.6	1	5	248	0.00	30.076 
12:45	63.7	63.7	63.7	41	39.6	2	6	270	0.00	30.066 
12:50	64.0	64.0	64.0	41	39.8	1	4	270	0.00	30.066 
12:55	64.3	64.3	64.3	43	41.3	1	4	270	0.00	30.066 
13:00	64.8	64.8	64.8	37	37.9	2	7	90	0.00	30.057 
13:05	65.2	65.2	65.2	38	38.9	1	4	270	0.00	30.057 
13:10	65.2	65.2	65.2	35	36.9	2	7	270	0.00	30.057 
13:15	65.3	65.3	65.3	36	37.7	2	11	270	0.00	30.048 
13:20	65.5	65.5	65.5	38	39.2	1	5	248	0.00	30.048 
13:25	65.8	65.8	65.8	36	38.1	1	4	270	0.00	30.048 
13:30	66.1	66.1	66.1	33	36.2	2	7	270	0.00	30.034 
13:35	66.4	66.4	66.4	32	35.6	2	6	248	0.00	30.034 
13:40	66.4	66.4	66.4	35	37.9	2	11	248	0.00	30.034 
13:45	66.6	66.6	66.6	33	36.6	2	5	270	0.00	30.027 
13:50	66.8	66.8	66.8	33	36.8	2	7	0	0.00	30.027 
13:55	66.8	66.8	66.8	34	37.5	2	6	292	0.00	30.027 
14:00	67.1	67.1	67.1	32	36.3	2	6	270	0.00	30.018 
14:05	67.4	67.4	67.4	32	36.5	2	6	248	0.00	30.018 
14:10	67.8	67.8	67.8	32	36.9	2	5	248	0.00	30.018 
14:15	67.9	67.9	67.9	32	36.9	2	7	68	0.00	30.010 
14:20	68.1	68.1	68.1	34	38.7	1	5	248	0.00	30.010 
14:25	68.3	68.3	68.3	33	38.1	2	10	248	0.00	30.010 
14:30	68.4	68.4	68.4	31	36.6	2	4	248	0.00	30.001 
14:35	68.6	68.6	68.6	31	36.8	1	7	270	0.00	30.001 
14:40	68.8	68.8	68.8	31	36.9	2	6	248	0.00	30.001 
14:45	68.6	68.6	68.6	31	36.8	2	6	248	0.00	29.987 
14:50	68.8	68.8	68.8	32	37.7	2	6	248	0.00	29.987 
14:55	68.9	68.9	68.9	32	37.8	2	5	90	0.00	29.987 
15:00	69.1	69.1	69.1	31	37.2	2	7	45	0.00	29.977 
15:05	69.1	69.1	69.1	32	38.0	1	7	248	0.00	29.977 
15:10	69.1	69.1	69.1	31	37.2	2	5	248	0.00	29.977 
15:15	69.4	69.4	69.4	33	39.0	1	5	248	0.00	29.968 
15:20	69.8	69.8	69.8	30	37.0	2	9	225	0.00	29.968 
15:25	70.1	70.1	70.1	29	36.4	2	9	270	0.00	29.968 
15:30	70.3	70.3	70.3	30	37.4	2	5	270	0.00	29.949 
15:35	70.1	70.1	70.1	30	37.2	2	15	248	0.00	29.949 
15:40	70.1	70.1	70.1	28	35.5	2	7	248	0.00	29.949 
15:45	70.1	70.1	70.1	28	35.5	2	9	248	0.00	29.936 
15:50	70.3	70.3	70.3	29	36.5	2	7	248	0.00	29.936 
15:55	70.1	70.1	70.1	28	35.5	2	5	270	0.00	29.936 
16:00	69.8	69.8	69.8	29	36.1	2	6	270	0.00	29.937 
16:05	69.8	69.8	69.8	29	36.1	2	4	248	0.00	29.937 
16:10	69.4	69.4	69.4	31	37.4	1	4	248	0.00	29.937 
16:15	69.4	69.4	69.4	31	37.4	1	3	248	0.00	29.928 
16:20	69.6	69.6	69.6	29	35.9	1	5	248	0.00	29.928 
16:25	69.9	69.9	69.9	29	36.2	2	6	248	0.00	29.928 
16:30	70.1	70.1	70.1	30	37.2	2	9	270	0.00	29.920 
16:35	69.9	69.9	69.9	31	37.9	1	3	315	0.00	29.920 
16:40	69.4	69.4	69.4	30	36.6	2	6	248	0.00	29.920 
16:45	68.9	68.9	68.9	32	37.8	1	4	248	0.00	29.915 
16:50	68.6	68.6	68.6	32	37.6	1	4	248	0.00	29.915 
16:55	68.6	68.6	68.6	32	37.6	1	4	225	0.00	29.915 
17:00	68.8	68.8	68.8	34	39.3	0	6	248	0.00	29.907 
17:05	68.8	68.8	68.8	32	37.7	1	5	315	0.00	29.907 
17:10	68.6	68.6	68.6	34	39.1	0	1	248	0.00	29.907 
17:15	68.4	68.4	68.4	33	38.2	0	2	270	0.00	29.900 
17:20	68.4	68.4	68.4	34	38.9	0	4	248	0.00	29.900 
17:25	68.4	68.4	68.4	34	38.9	0	3	248	0.00	29.900 
17:30	68.3	68.3	68.3	35	39.6	0	3	202	0.00	29.885 
17:35	68.1	68.1	68.1	33	37.9	1	3	112	0.00	29.885 
17:40	68.1	68.1	68.1	34	38.7	0	3	112	0.00	29.885 
17:45	67.9	67.9	67.9	35	39.2	0	2	45	0.00	29.874 
17:50	67.8	67.8	67.8	35	39.1	0	2	45	0.00	29.874 
17:55	67.6	67.6	67.6	35	39.0	1	4	45	0.00	29.874 
18:00	67.3	67.3	67.3	35	38.7	1	3	45	0.00	29.862 
18:05	67.1	67.1	67.1	35	38.5	1	5	45	0.00	29.862 
18:10	66.9	66.9	66.9	36	39.1	0	3	112	0.00	29.862 
18:15	66.8	66.8	66.8	35	38.3	0	2	90	0.00	29.858 
18:20	66.6	66.6	66.6	35	38.1	0	3	112	0.00	29.858 
18:25	66.4	66.4	66.4	35	37.9	0	2	68	0.00	29.858 
18:30	66.3	66.3	66.3	37	39.2	0	3	68	0.00	29.847 
18:35	66.0	66.0	66.0	36	38.3	1	3	68	0.00	29.847 
18:40	65.8	65.8	65.8	36	38.1	0	2	270	0.00	29.847 
18:45	65.6	65.6	65.6	36	37.9	1	4	248	0.00	29.844 
18:50	65.5	65.5	65.5	36	37.8	0	1	248	0.00	29.844 
18:55	65.3	65.3	65.3	36	37.7	1	4	248	0.00	29.844 
19:00	65.3	65.3	65.3	36	37.7	1	3	90	0.00	29.836 
19:05	65.2	65.2	65.2	37	38.3	0	2	315	0.00	29.836 
19:10	65.2	65.2	65.2	37	38.3	0	2	270	0.00	29.836 
19:15	65.0	65.0	65.0	36	37.4	1	2	248	0.00	29.839 
19:20	65.2	65.2	65.2	36	37.6	1	4	270	0.00	29.839 
19:25	65.2	65.2	65.2	36	37.6	1	3	225	0.00	29.839 
19:30	65.2	65.2	65.2	36	37.6	0	2	158	0.00	29.844 
19:35	65.3	65.3	65.3	36	37.7	1	5	248	0.00	29.844 
19:40	65.3	65.3	65.3	35	36.9	0	2	248	0.00	29.844 
19:45	65.2	65.2	65.2	36	37.6	0	2	248	0.00	29.844 
19:50	65.2	65.2	65.2	36	37.6	0	2	248	0.00	29.844 
19:55	65.0	65.0	65.0	36	37.4	0	2	248	0.00	29.844 
20:00	65.0	65.0	65.0	35	36.7	1	5	248	0.00	29.845 
20:05	65.2	65.2	65.2	36	37.6	1	4	248	0.00	29.845 
20:10	65.3	65.3	65.3	35	36.9	1	5	225	0.00	29.845 
20:15	65.3	65.3	65.3	36	37.7	1	3	225	0.00	29.849 
20:20	65.2	65.2	65.2	36	37.6	0	3	248	0.00	29.849 
20:25	65.2	65.2	65.2	36	37.6	1	3	248	0.00	29.849 
20:30	65.0	65.0	65.0	36	37.4	1	4	248	0.00	29.854 
20:35	65.0	65.0	65.0	37	38.1	1	4	68	0.00	29.854 
20:40	64.8	64.8	64.8	38	38.6	0	2	270	0.00	29.854 
20:45	64.5	64.5	64.5	39	39.0	0	2	270	0.00	29.842 
20:50	64.3	64.3	64.3	39	38.8	0	2	270	0.00	29.842 
20:55	64.2	64.2	64.2	39	38.7	1	3	270	0.00	29.842 
21:00	64.2	64.2	64.2	39	38.7	0	2	248	0.00	29.837 
21:05	64.0	64.0	64.0	40	39.2	0	3	248	0.00	29.837 
21:10	63.7	63.7	63.7	40	38.9	0	2	248	0.00	29.837 
21:15	63.5	63.5	63.5	40	38.7	0	2	248	0.00	29.829 
21:20	63.2	63.2	63.2	41	39.1	0	2	248	0.00	29.829 
21:25	62.9	62.9	62.9	42	39.5	0	2	248	0.00	29.829 
21:30	62.7	62.7	62.7	42	39.3	0	2	135	0.00	29.826 
21:35	62.4	62.4	62.4	43	39.6	0	2	225	0.00	29.826 
21:40	62.3	62.3	62.3	43	39.5	0	3	225	0.00	29.826 
21:45	62.1	62.1	62.1	44	39.9	0	1	225	0.00	29.837 
21:50	62.0	62.0	62.0	44	39.8	0	0	---	0.00	29.837 
21:55	61.8	61.8	61.8	45	40.2	0	1	225	0.00	29.837 
22:00	61.5	61.5	61.5	45	40.0	0	2	225	0.00	29.834 
22:05	61.3	61.3	61.3	45	39.8	0	1	225	0.00	29.834 
22:10	61.2	61.2	61.2	46	40.3	0	1	225	0.00	29.834 
22:15	61.0	61.0	61.0	46	40.1	0	1	225	0.00	29.829 
22:20	60.9	60.9	60.9	47	40.5	0	3	225	0.00	29.829 
22:25	60.9	60.9	60.9	47	40.5	0	1	225	0.00	29.829 
22:30	60.9	60.9	60.9	47	40.5	0	1	225	0.00	29.818 
22:35	61.0	61.0	61.0	47	40.6	0	1	225	0.00	29.818 
22:40	61.0	61.0	61.0	47	40.6	0	1	225	0.00	29.818 
22:45	61.0	61.0	61.0	48	41.2	0	1	225	0.00	29.816 
22:50	61.2	61.2	61.2	47	40.8	0	3	225	0.00	29.816 
22:55	61.6	61.6	61.6	46	40.6	1	4	225	0.00	29.816 
23:00	62.0	62.0	62.0	46	41.0	0	2	248	0.00	29.828 
23:05	62.3	62.3	62.3	47	41.8	0	1	248	0.00	29.828 
23:10	62.3	62.3	62.3	49	42.9	0	1	248	0.00	29.828 
23:15	62.0	62.0	62.0	50	43.1	0	1	248	0.00	29.827 
23:20	61.6	61.6	61.6	52	43.8	0	1	248	0.00	29.827 
23:25	61.3	61.3	61.3	57	45.9	0	1	248	0.01	29.827 
23:30	60.4	60.4	60.4	62	47.3	0	1	248	0.01	29.809 
23:35	59.3	59.3	59.3	65	47.5	0	1	248	0.02	29.809 
23:40	58.4	58.4	58.4	69	48.3	0	1	248	0.02	29.809 
23:45	57.3	57.3	57.3	72	48.3	0	1	248	0.00	29.800 
23:50	56.7	56.7	56.7	75	48.9	0	1	248	0.01	29.800 
23:55	56.2	56.2	56.2	77	49.1	0	1	248	0.01	29.800 

CoCoRaHS
IN-AL-39
A2 Web Hosting
Creative Commons License
GoDaddy
search engine by freefind advanced

loaded 2018-11-15 13:35:01 • last modified 2010-11-18 10:43:29
Privacy PolicyDisclaimer
• wx.awcolley.com is powered by PmWiki v.2002016 •
• all content (unless otherwise noted) © 2018 A W Colley